sensor_id;sensor_type;location;lat;lon;timestamp;temperature;humidity
32400;DHT22;45045;45.440;9.178;2022-12-18T00:01:25;10.10;99.90
32400;DHT22;45045;45.440;9.178;2022-12-18T00:03:52;10.10;99.90
32400;DHT22;45045;45.440;9.178;2022-12-18T00:06:19;10.00;99.90
32400;DHT22;45045;45.440;9.178;2022-12-18T00:08:45;10.00;99.90
32400;DHT22;45045;45.440;9.178;2022-12-18T00:11:14;9.90;99.90
32400;DHT22;45045;45.440;9.178;2022-12-18T00:13:40;9.90;99.90
32400;DHT22;45045;45.440;9.178;2022-12-18T00:16:11;9.80;99.90
32400;DHT22;45045;45.440;9.178;2022-12-18T00:18:37;9.80;99.90
32400;DHT22;45045;45.440;9.178;2022-12-18T00:21:06;9.80;99.90
32400;DHT22;45045;45.440;9.178;2022-12-18T00:23:32;9.80;99.90
32400;DHT22;45045;45.440;9.178;2022-12-18T00:26:00;9.70;99.90
32400;DHT22;45045;45.440;9.178;2022-12-18T00:28:26;9.80;99.90
32400;DHT22;45045;45.440;9.178;2022-12-18T00:31:01;9.70;99.90
32400;DHT22;45045;45.440;9.178;2022-12-18T00:33:27;9.70;99.90
32400;DHT22;45045;45.440;9.178;2022-12-18T00:35:53;9.70;99.90
32400;DHT22;45045;45.440;9.178;2022-12-18T00:38:19;9.70;99.90
32400;DHT22;45045;45.440;9.178;2022-12-18T00:40:45;9.60;99.90
32400;DHT22;45045;45.440;9.178;2022-12-18T00:43:10;9.60;99.90
32400;DHT22;45045;45.440;9.178;2022-12-18T00:45:36;9.60;99.90
32400;DHT22;45045;45.440;9.178;2022-12-18T00:48:02;9.50;99.90
32400;DHT22;45045;45.440;9.178;2022-12-18T00:50:28;9.50;99.90
32400;DHT22;45045;45.440;9.178;2022-12-18T00:52:54;9.50;99.90
32400;DHT22;45045;45.440;9.178;2022-12-18T00:55:19;9.40;99.90
32400;DHT22;45045;45.440;9.178;2022-12-18T00:57:45;9.40;99.90
32400;DHT22;45045;45.440;9.178;2022-12-18T01:00:14;9.40;99.90
32400;DHT22;45045;45.440;9.178;2022-12-18T01:02:41;9.30;99.90
32400;DHT22;45045;45.440;9.178;2022-12-18T01:05:08;9.30;99.90
32400;DHT22;45045;45.440;9.178;2022-12-18T01:07:34;9.30;99.90
32400;DHT22;45045;45.440;9.178;2022-12-18T01:10:00;9.20;99.90
32400;DHT22;45045;45.440;9.178;2022-12-18T01:12:25;9.20;99.90
32400;DHT22;45045;45.440;9.178;2022-12-18T01:14:51;9.20;99.90
32400;DHT22;45045;45.440;9.178;2022-12-18T01:17:17;9.10;99.90
32400;DHT22;45045;45.440;9.178;2022-12-18T01:19:43;9.10;99.90
32400;DHT22;45045;45.440;9.178;2022-12-18T01:22:08;9.00;99.90
32400;DHT22;45045;45.440;9.178;2022-12-18T01:24:34;9.00;99.90
32400;DHT22;45045;45.440;9.178;2022-12-18T01:27:00;9.00;99.90
32400;DHT22;45045;45.440;9.178;2022-12-18T01:29:25;8.90;99.90
32400;DHT22;45045;45.440;9.178;2022-12-18T01:31:54;8.90;99.90
32400;DHT22;45045;45.440;9.178;2022-12-18T01:34:19;8.80;99.90
32400;DHT22;45045;45.440;9.178;2022-12-18T01:36:45;8.80;99.90
32400;DHT22;45045;45.440;9.178;2022-12-18T01:39:13;9.00;99.90
32400;DHT22;45045;45.440;9.178;2022-12-18T01:41:39;8.90;99.90
32400;DHT22;45045;45.440;9.178;2022-12-18T01:50:18;8.70;99.90
32400;DHT22;45045;45.440;9.178;2022-12-18T01:53:17;8.60;99.90
32400;DHT22;45045;45.440;9.178;2022-12-18T01:55:48;8.70;99.90
32400;DHT22;45045;45.440;9.178;2022-12-18T01:58:15;8.60;99.90
32400;DHT22;45045;45.440;9.178;2022-12-18T02:00:42;8.60;99.90
32400;DHT22;45045;45.440;9.178;2022-12-18T02:03:07;8.50;99.90
32400;DHT22;45045;45.440;9.178;2022-12-18T02:13:31;8.50;99.90
32400;DHT22;45045;45.440;9.178;2022-12-18T02:18:41;8.40;99.90
32400;DHT22;45045;45.440;9.178;2022-12-18T02:21:24;8.40;99.90
32400;DHT22;45045;45.440;9.178;2022-12-18T02:24:01;8.40;99.90
32400;DHT22;45045;45.440;9.178;2022-12-18T02:26:37;8.40;99.90
32400;DHT22;45045;45.440;9.178;2022-12-18T02:29:13;8.40;99.90
32400;DHT22;45045;45.440;9.178;2022-12-18T02:31:45;8.50;99.90
32400;DHT22;45045;45.440;9.178;2022-12-18T02:34:13;8.50;99.90
32400;DHT22;45045;45.440;9.178;2022-12-18T02:36:42;8.40;99.90
32400;DHT22;45045;45.440;9.178;2022-12-18T02:39:10;8.40;99.90
32400;DHT22;45045;45.440;9.178;2022-12-18T02:41:37;8.40;99.90
32400;DHT22;45045;45.440;9.178;2022-12-18T02:44:08;8.40;99.90
32400;DHT22;45045;45.440;9.178;2022-12-18T02:46:50;8.40;99.90
32400;DHT22;45045;45.440;9.178;2022-12-18T02:57:34;8.40;99.90
32400;DHT22;45045;45.440;9.178;2022-12-18T03:00:12;8.40;99.90
32400;DHT22;45045;45.440;9.178;2022-12-18T03:03:50;8.30;99.90
32400;DHT22;45045;45.440;9.178;2022-12-18T03:05:50;8.30;99.90
32400;DHT22;45045;45.440;9.178;2022-12-18T03:08:26;8.30;99.90
32400;DHT22;45045;45.440;9.178;2022-12-18T03:11:00;8.40;99.90
32400;DHT22;45045;45.440;9.178;2022-12-18T03:16:11;8.30;99.90
32400;DHT22;45045;45.440;9.178;2022-12-18T03:21:10;8.30;99.90
32400;DHT22;45045;45.440;9.178;2022-12-18T03:23:40;8.30;99.90
32400;DHT22;45045;45.440;9.178;2022-12-18T03:26:10;8.30;99.90
32400;DHT22;45045;45.440;9.178;2022-12-18T03:28:41;8.30;99.90
32400;DHT22;45045;45.440;9.178;2022-12-18T03:31:08;8.30;99.90
32400;DHT22;45045;45.440;9.178;2022-12-18T03:33:40;8.30;99.90
32400;DHT22;45045;45.440;9.178;2022-12-18T03:36:07;8.30;99.90
32400;DHT22;45045;45.440;9.178;2022-12-18T03:38:33;8.30;99.90
32400;DHT22;45045;45.440;9.178;2022-12-18T03:49:07;8.30;99.90
32400;DHT22;45045;45.440;9.178;2022-12-18T03:51:49;8.20;99.90
32400;DHT22;45045;45.440;9.178;2022-12-18T03:54:18;8.20;99.90
32400;DHT22;45045;45.440;9.178;2022-12-18T03:56:51;8.30;99.90
32400;DHT22;45045;45.440;9.178;2022-12-18T03:59:19;8.20;99.90
32400;DHT22;45045;45.440;9.178;2022-12-18T04:01:48;8.20;99.90
32400;DHT22;45045;45.440;9.178;2022-12-18T04:04:15;8.30;99.90
32400;DHT22;45045;45.440;9.178;2022-12-18T04:06:42;8.20;99.90
32400;DHT22;45045;45.440;9.178;2022-12-18T04:09:09;8.20;99.90
32400;DHT22;45045;45.440;9.178;2022-12-18T04:11:34;8.20;99.90
32400;DHT22;45045;45.440;9.178;2022-12-18T04:14:00;8.20;99.90
32400;DHT22;45045;45.440;9.178;2022-12-18T04:16:26;8.20;99.90
32400;DHT22;45045;45.440;9.178;2022-12-18T04:18:52;8.20;99.90
32400;DHT22;45045;45.440;9.178;2022-12-18T04:21:18;8.10;99.90
32400;DHT22;45045;45.440;9.178;2022-12-18T04:23:43;8.20;99.90
32400;DHT22;45045;45.440;9.178;2022-12-18T04:26:09;8.20;99.90
32400;DHT22;45045;45.440;9.178;2022-12-18T04:28:34;8.20;99.90
32400;DHT22;45045;45.440;9.178;2022-12-18T04:31:00;8.20;99.90
32400;DHT22;45045;45.440;9.178;2022-12-18T04:33:25;8.20;99.90
32400;DHT22;45045;45.440;9.178;2022-12-18T04:35:51;8.20;99.90
32400;DHT22;45045;45.440;9.178;2022-12-18T04:38:17;8.10;99.90
32400;DHT22;45045;45.440;9.178;2022-12-18T04:40:43;8.10;99.90
32400;DHT22;45045;45.440;9.178;2022-12-18T04:43:08;8.10;99.90
32400;DHT22;45045;45.440;9.178;2022-12-18T04:45:34;8.00;99.90
32400;DHT22;45045;45.440;9.178;2022-12-18T04:48:00;8.10;99.90
32400;DHT22;45045;45.440;9.178;2022-12-18T04:50:27;8.10;99.90
32400;DHT22;45045;45.440;9.178;2022-12-18T04:52:52;8.10;99.90
32400;DHT22;45045;45.440;9.178;2022-12-18T04:55:18;8.10;99.90
32400;DHT22;45045;45.440;9.178;2022-12-18T04:57:44;8.10;99.90
32400;DHT22;45045;45.440;9.178;2022-12-18T05:00:10;8.10;99.90
32400;DHT22;45045;45.440;9.178;2022-12-18T05:02:36;8.10;99.90
32400;DHT22;45045;45.440;9.178;2022-12-18T05:05:02;8.10;99.90
32400;DHT22;45045;45.440;9.178;2022-12-18T05:07:27;8.10;99.90
32400;DHT22;45045;45.440;9.178;2022-12-18T05:09:53;8.00;99.90
32400;DHT22;45045;45.440;9.178;2022-12-18T05:12:18;8.10;99.90
32400;DHT22;45045;45.440;9.178;2022-12-18T05:14:44;8.00;99.90
32400;DHT22;45045;45.440;9.178;2022-12-18T05:17:10;8.00;99.90
32400;DHT22;45045;45.440;9.178;2022-12-18T05:19:35;8.00;99.90
32400;DHT22;45045;45.440;9.178;2022-12-18T05:22:04;8.00;99.90
32400;DHT22;45045;45.440;9.178;2022-12-18T05:24:32;7.90;99.90
32400;DHT22;45045;45.440;9.178;2022-12-18T05:26:58;7.90;99.90
32400;DHT22;45045;45.440;9.178;2022-12-18T05:29:23;7.90;99.90
32400;DHT22;45045;45.440;9.178;2022-12-18T05:31:49;7.90;99.90
32400;DHT22;45045;45.440;9.178;2022-12-18T05:34:15;7.90;99.90
32400;DHT22;45045;45.440;9.178;2022-12-18T05:36:40;7.90;99.90
32400;DHT22;45045;45.440;9.178;2022-12-18T05:39:06;8.00;99.90
32400;DHT22;45045;45.440;9.178;2022-12-18T05:41:32;8.00;99.90
32400;DHT22;45045;45.440;9.178;2022-12-18T05:43:58;7.90;99.90
32400;DHT22;45045;45.440;9.178;2022-12-18T05:46:24;7.90;99.90
32400;DHT22;45045;45.440;9.178;2022-12-18T05:48:50;8.00;99.90
32400;DHT22;45045;45.440;9.178;2022-12-18T05:51:18;7.90;99.90
32400;DHT22;45045;45.440;9.178;2022-12-18T05:53:44;8.00;99.90
32400;DHT22;45045;45.440;9.178;2022-12-18T05:56:15;8.00;99.90
32400;DHT22;45045;45.440;9.178;2022-12-18T05:58:41;8.00;99.90
32400;DHT22;45045;45.440;9.178;2022-12-18T06:01:18;8.00;99.90
32400;DHT22;45045;45.440;9.178;2022-12-18T06:03:44;8.00;99.90
32400;DHT22;45045;45.440;9.178;2022-12-18T06:06:18;8.00;99.90
32400;DHT22;45045;45.440;9.178;2022-12-18T06:08:45;7.80;99.90
32400;DHT22;45045;45.440;9.178;2022-12-18T06:11:10;7.80;99.90
32400;DHT22;45045;45.440;9.178;2022-12-18T06:13:38;7.90;99.90
32400;DHT22;45045;45.440;9.178;2022-12-18T06:16:06;7.90;99.90
32400;DHT22;45045;45.440;9.178;2022-12-18T06:18:33;7.80;99.90
32400;DHT22;45045;45.440;9.178;2022-12-18T06:20:59;7.80;99.90
32400;DHT22;45045;45.440;9.178;2022-12-18T06:23:26;7.80;99.90
32400;DHT22;45045;45.440;9.178;2022-12-18T06:25:52;7.80;99.90
32400;DHT22;45045;45.440;9.178;2022-12-18T06:28:18;7.80;99.90
32400;DHT22;45045;45.440;9.178;2022-12-18T06:30:44;7.90;99.90
32400;DHT22;45045;45.440;9.178;2022-12-18T06:33:10;7.80;99.90
32400;DHT22;45045;45.440;9.178;2022-12-18T06:35:36;7.90;99.90
32400;DHT22;45045;45.440;9.178;2022-12-18T06:38:02;7.80;99.90
32400;DHT22;45045;45.440;9.178;2022-12-18T06:40:28;7.80;99.90
32400;DHT22;45045;45.440;9.178;2022-12-18T06:42:53;7.90;99.90
32400;DHT22;45045;45.440;9.178;2022-12-18T06:45:19;7.90;99.90
32400;DHT22;45045;45.440;9.178;2022-12-18T06:47:44;7.90;99.90
32400;DHT22;45045;45.440;9.178;2022-12-18T06:50:11;7.90;99.90
32400;DHT22;45045;45.440;9.178;2022-12-18T06:52:37;7.90;99.90
32400;DHT22;45045;45.440;9.178;2022-12-18T06:55:04;7.80;99.90
32400;DHT22;45045;45.440;9.178;2022-12-18T06:57:30;7.80;99.90
32400;DHT22;45045;45.440;9.178;2022-12-18T06:59:56;7.80;99.90
32400;DHT22;45045;45.440;9.178;2022-12-18T07:02:21;7.80;99.90
32400;DHT22;45045;45.440;9.178;2022-12-18T07:04:50;7.80;99.90
32400;DHT22;45045;45.440;9.178;2022-12-18T07:07:16;7.80;99.90
32400;DHT22;45045;45.440;9.178;2022-12-18T07:09:41;7.80;99.90
32400;DHT22;45045;45.440;9.178;2022-12-18T07:12:07;7.80;99.90
32400;DHT22;45045;45.440;9.178;2022-12-18T07:14:33;7.70;99.90
32400;DHT22;45045;45.440;9.178;2022-12-18T07:16:59;7.70;99.90
32400;DHT22;45045;45.440;9.178;2022-12-18T07:19:24;7.70;99.90
32400;DHT22;45045;45.440;9.178;2022-12-18T07:21:50;7.70;99.90
32400;DHT22;45045;45.440;9.178;2022-12-18T07:24:16;7.70;99.90
32400;DHT22;45045;45.440;9.178;2022-12-18T07:26:42;7.70;99.90
32400;DHT22;45045;45.440;9.178;2022-12-18T07:29:08;7.80;99.90
32400;DHT22;45045;45.440;9.178;2022-12-18T07:31:33;7.80;99.90
32400;DHT22;45045;45.440;9.178;2022-12-18T07:33:59;7.70;99.90
32400;DHT22;45045;45.440;9.178;2022-12-18T07:36:25;7.80;99.90
32400;DHT22;45045;45.440;9.178;2022-12-18T07:38:51;7.70;99.90
32400;DHT22;45045;45.440;9.178;2022-12-18T07:41:18;7.70;99.90
32400;DHT22;45045;45.440;9.178;2022-12-18T07:43:44;7.70;99.90
32400;DHT22;45045;45.440;9.178;2022-12-18T07:46:10;7.70;99.90
32400;DHT22;45045;45.440;9.178;2022-12-18T07:48:36;7.70;99.90
32400;DHT22;45045;45.440;9.178;2022-12-18T07:51:04;7.70;99.90
32400;DHT22;45045;45.440;9.178;2022-12-18T07:53:31;7.60;99.90
32400;DHT22;45045;45.440;9.178;2022-12-18T07:55:58;7.80;99.90
32400;DHT22;45045;45.440;9.178;2022-12-18T07:58:24;7.80;99.90
32400;DHT22;45045;45.440;9.178;2022-12-18T08:00:50;7.70;99.90
32400;DHT22;45045;45.440;9.178;2022-12-18T08:03:15;7.70;99.90
32400;DHT22;45045;45.440;9.178;2022-12-18T08:05:41;7.70;99.90
32400;DHT22;45045;45.440;9.178;2022-12-18T08:08:06;7.70;99.90
32400;DHT22;45045;45.440;9.178;2022-12-18T08:10:32;7.80;99.90
32400;DHT22;45045;45.440;9.178;2022-12-18T08:12:58;7.80;99.90
32400;DHT22;45045;45.440;9.178;2022-12-18T08:15:23;7.90;99.90
32400;DHT22;45045;45.440;9.178;2022-12-18T08:17:49;7.90;99.90
32400;DHT22;45045;45.440;9.178;2022-12-18T08:20:14;7.90;99.90
32400;DHT22;45045;45.440;9.178;2022-12-18T08:22:41;7.90;99.90
32400;DHT22;45045;45.440;9.178;2022-12-18T08:25:07;7.90;99.90
32400;DHT22;45045;45.440;9.178;2022-12-18T08:27:33;7.90;99.90
32400;DHT22;45045;45.440;9.178;2022-12-18T08:29:59;8.00;99.90
32400;DHT22;45045;45.440;9.178;2022-12-18T08:32:25;7.90;99.90
32400;DHT22;45045;45.440;9.178;2022-12-18T08:34:51;8.00;99.90
32400;DHT22;45045;45.440;9.178;2022-12-18T08:37:17;8.00;99.90
32400;DHT22;45045;45.440;9.178;2022-12-18T08:39:42;8.00;99.90
32400;DHT22;45045;45.440;9.178;2022-12-18T08:42:08;8.10;99.90
32400;DHT22;45045;45.440;9.178;2022-12-18T08:44:52;8.10;99.90
32400;DHT22;45045;45.440;9.178;2022-12-18T08:47:18;8.20;99.90
32400;DHT22;45045;45.440;9.178;2022-12-18T08:49:43;8.30;99.90
32400;DHT22;45045;45.440;9.178;2022-12-18T08:52:09;8.30;99.90
32400;DHT22;45045;45.440;9.178;2022-12-18T08:54:34;8.20;99.90
32400;DHT22;45045;45.440;9.178;2022-12-18T08:57:00;8.20;99.90
32400;DHT22;45045;45.440;9.178;2022-12-18T08:59:27;8.20;99.90
32400;DHT22;45045;45.440;9.178;2022-12-18T09:01:55;8.20;99.90
32400;DHT22;45045;45.440;9.178;2022-12-18T09:04:22;8.20;99.90
32400;DHT22;45045;45.440;9.178;2022-12-18T09:06:47;8.30;99.90
32400;DHT22;45045;45.440;9.178;2022-12-18T09:09:13;8.40;99.90
32400;DHT22;45045;45.440;9.178;2022-12-18T09:11:39;8.40;99.90
32400;DHT22;45045;45.440;9.178;2022-12-18T09:14:04;8.40;99.90
32400;DHT22;45045;45.440;9.178;2022-12-18T09:16:30;8.40;99.90
32400;DHT22;45045;45.440;9.178;2022-12-18T09:18:57;8.50;99.90
32400;DHT22;45045;45.440;9.178;2022-12-18T09:21:27;8.50;99.90
32400;DHT22;45045;45.440;9.178;2022-12-18T09:23:55;8.50;99.90
32400;DHT22;45045;45.440;9.178;2022-12-18T09:26:22;8.50;99.90
32400;DHT22;45045;45.440;9.178;2022-12-18T09:28:48;8.50;99.90
32400;DHT22;45045;45.440;9.178;2022-12-18T09:31:14;8.70;99.90
32400;DHT22;45045;45.440;9.178;2022-12-18T09:33:40;8.60;99.90
32400;DHT22;45045;45.440;9.178;2022-12-18T09:36:09;8.60;99.90
32400;DHT22;45045;45.440;9.178;2022-12-18T09:38:35;8.60;99.90
32400;DHT22;45045;45.440;9.178;2022-12-18T09:41:06;8.60;99.90
32400;DHT22;45045;45.440;9.178;2022-12-18T09:44:03;8.60;99.90
32400;DHT22;45045;45.440;9.178;2022-12-18T09:46:33;8.60;99.90
32400;DHT22;45045;45.440;9.178;2022-12-18T09:49:02;9.30;99.90
32400;DHT22;45045;45.440;9.178;2022-12-18T09:51:35;10.60;99.90
32400;DHT22;45045;45.440;9.178;2022-12-18T09:54:11;10.20;99.90
32400;DHT22;45045;45.440;9.178;2022-12-18T09:56:40;9.70;99.90
32400;DHT22;45045;45.440;9.178;2022-12-18T09:59:32;9.50;99.90
32400;DHT22;45045;45.440;9.178;2022-12-18T10:01:59;9.40;99.90
32400;DHT22;45045;45.440;9.178;2022-12-18T10:04:28;9.30;99.90
32400;DHT22;45045;45.440;9.178;2022-12-18T10:07:06;9.10;99.90
32400;DHT22;45045;45.440;9.178;2022-12-18T10:09:42;9.10;99.90
32400;DHT22;45045;45.440;9.178;2022-12-18T10:12:30;9.10;99.90
32400;DHT22;45045;45.440;9.178;2022-12-18T10:20:34;11.30;99.90
32400;DHT22;45045;45.440;9.178;2022-12-18T10:28:26;12.30;99.90
32400;DHT22;45045;45.440;9.178;2022-12-18T10:30:52;12.50;99.90
32400;DHT22;45045;45.440;9.178;2022-12-18T10:33:23;12.40;99.90
32400;DHT22;45045;45.440;9.178;2022-12-18T10:35:50;12.20;99.90
32400;DHT22;45045;45.440;9.178;2022-12-18T10:41:05;12.60;99.90
32400;DHT22;45045;45.440;9.178;2022-12-18T10:43:35;12.50;99.90
32400;DHT22;45045;45.440;9.178;2022-12-18T10:46:08;12.70;99.90
32400;DHT22;45045;45.440;9.178;2022-12-18T10:51:39;12.90;99.90
32400;DHT22;45045;45.440;9.178;2022-12-18T10:54:05;13.00;99.90
32400;DHT22;45045;45.440;9.178;2022-12-18T10:56:34;13.10;99.90
32400;DHT22;45045;45.440;9.178;2022-12-18T10:59:06;13.30;99.90
32400;DHT22;45045;45.440;9.178;2022-12-18T11:01:46;13.40;99.90
32400;DHT22;45045;45.440;9.178;2022-12-18T11:04:20;13.60;99.90
32400;DHT22;45045;45.440;9.178;2022-12-18T11:09:36;13.70;99.90
32400;DHT22;45045;45.440;9.178;2022-12-18T11:12:18;13.80;99.90
32400;DHT22;45045;45.440;9.178;2022-12-18T11:14:51;13.00;99.90
32400;DHT22;45045;45.440;9.178;2022-12-18T11:19:58;12.80;99.90
32400;DHT22;45045;45.440;9.178;2022-12-18T11:22:29;12.70;99.90
32400;DHT22;45045;45.440;9.178;2022-12-18T11:27:37;12.70;99.90
32400;DHT22;45045;45.440;9.178;2022-12-18T11:32:37;12.40;99.90
32400;DHT22;45045;45.440;9.178;2022-12-18T11:36:08;11.90;99.90
32400;DHT22;45045;45.440;9.178;2022-12-18T11:40:45;11.10;99.90
32400;DHT22;45045;45.440;9.178;2022-12-18T11:43:20;10.90;99.90
32400;DHT22;45045;45.440;9.178;2022-12-18T11:45:54;10.70;99.90
32400;DHT22;45045;45.440;9.178;2022-12-18T11:51:19;10.60;99.90
32400;DHT22;45045;45.440;9.178;2022-12-18T11:53:48;10.90;99.90
32400;DHT22;45045;45.440;9.178;2022-12-18T11:56:35;11.00;99.90
32400;DHT22;45045;45.440;9.178;2022-12-18T11:59:21;10.90;99.90
32400;DHT22;45045;45.440;9.178;2022-12-18T12:11:05;10.60;99.90
32400;DHT22;45045;45.440;9.178;2022-12-18T12:16:17;10.80;99.90
32400;DHT22;45045;45.440;9.178;2022-12-18T12:18:49;11.00;99.90
32400;DHT22;45045;45.440;9.178;2022-12-18T12:29:01;12.60;99.90
32400;DHT22;45045;45.440;9.178;2022-12-18T12:39:39;11.20;99.90
32400;DHT22;45045;45.440;9.178;2022-12-18T12:42:13;10.70;99.90
32400;DHT22;45045;45.440;9.178;2022-12-18T12:45:02;10.50;99.90
32400;DHT22;45045;45.440;9.178;2022-12-18T12:47:37;10.30;99.90
32400;DHT22;45045;45.440;9.178;2022-12-18T12:50:11;10.30;99.90
32400;DHT22;45045;45.440;9.178;2022-12-18T12:52:41;11.10;99.90
32400;DHT22;45045;45.440;9.178;2022-12-18T12:55:18;12.30;99.90
32400;DHT22;45045;45.440;9.178;2022-12-18T12:57:51;12.80;99.90
32400;DHT22;45045;45.440;9.178;2022-12-18T13:00:20;12.30;99.90
32400;DHT22;45045;45.440;9.178;2022-12-18T13:03:15;11.70;99.90
32400;DHT22;45045;45.440;9.178;2022-12-18T13:08:32;11.30;99.90
32400;DHT22;45045;45.440;9.178;2022-12-18T13:10:59;11.20;99.90
32400;DHT22;45045;45.440;9.178;2022-12-18T13:13:52;11.10;99.90
32400;DHT22;45045;45.440;9.178;2022-12-18T13:16:20;11.20;99.90
32400;DHT22;45045;45.440;9.178;2022-12-18T13:18:54;11.10;99.90
32400;DHT22;45045;45.440;9.178;2022-12-18T13:21:26;10.90;99.90
32400;DHT22;45045;45.440;9.178;2022-12-18T13:23:53;10.80;99.90
32400;DHT22;45045;45.440;9.178;2022-12-18T13:26:29;10.70;99.90
32400;DHT22;45045;45.440;9.178;2022-12-18T13:28:57;10.80;99.90
32400;DHT22;45045;45.440;9.178;2022-12-18T13:36:48;11.60;99.90
32400;DHT22;45045;45.440;9.178;2022-12-18T13:41:48;11.50;99.90
32400;DHT22;45045;45.440;9.178;2022-12-18T13:47:00;11.20;99.90
32400;DHT22;45045;45.440;9.178;2022-12-18T13:49:41;11.10;99.90
32400;DHT22;45045;45.440;9.178;2022-12-18T13:52:28;11.20;99.90
32400;DHT22;45045;45.440;9.178;2022-12-18T13:54:59;11.00;99.90
32400;DHT22;45045;45.440;9.178;2022-12-18T13:57:32;12.00;99.90
32400;DHT22;45045;45.440;9.178;2022-12-18T14:00:28;12.80;99.90
32400;DHT22;45045;45.440;9.178;2022-12-18T14:02:55;12.70;99.90
32400;DHT22;45045;45.440;9.178;2022-12-18T14:05:30;12.10;99.90
32400;DHT22;45045;45.440;9.178;2022-12-18T14:08:01;11.80;99.90
32400;DHT22;45045;45.440;9.178;2022-12-18T14:10:31;11.40;99.90
32400;DHT22;45045;45.440;9.178;2022-12-18T14:12:57;11.20;99.90
32400;DHT22;45045;45.440;9.178;2022-12-18T14:15:45;11.00;99.90
32400;DHT22;45045;45.440;9.178;2022-12-18T14:18:53;11.70;99.90
32400;DHT22;45045;45.440;9.178;2022-12-18T14:21:26;11.80;99.90
32400;DHT22;45045;45.440;9.178;2022-12-18T14:24:15;11.40;99.90
32400;DHT22;45045;45.440;9.178;2022-12-18T14:26:42;11.10;99.90
32400;DHT22;45045;45.440;9.178;2022-12-18T14:29:28;10.90;99.90
32400;DHT22;45045;45.440;9.178;2022-12-18T14:32:11;10.70;99.90
32400;DHT22;45045;45.440;9.178;2022-12-18T14:34:39;10.60;99.90
32400;DHT22;45045;45.440;9.178;2022-12-18T14:37:07;10.50;99.90
32400;DHT22;45045;45.440;9.178;2022-12-18T14:39:34;10.60;99.90
32400;DHT22;45045;45.440;9.178;2022-12-18T14:42:00;10.60;99.90
32400;DHT22;45045;45.440;9.178;2022-12-18T14:44:26;10.60;99.90
32400;DHT22;45045;45.440;9.178;2022-12-18T14:46:51;10.50;99.90
32400;DHT22;45045;45.440;9.178;2022-12-18T14:49:34;10.50;99.90
32400;DHT22;45045;45.440;9.178;2022-12-18T14:52:03;10.50;99.90
32400;DHT22;45045;45.440;9.178;2022-12-18T14:54:30;10.50;99.90
32400;DHT22;45045;45.440;9.178;2022-12-18T14:59:23;10.40;99.90
32400;DHT22;45045;45.440;9.178;2022-12-18T15:04:38;10.30;99.90
32400;DHT22;45045;45.440;9.178;2022-12-18T15:07:22;10.30;99.90
32400;DHT22;45045;45.440;9.178;2022-12-18T15:15:41;10.60;99.90
32400;DHT22;45045;45.440;9.178;2022-12-18T15:18:05;11.60;99.90
32400;DHT22;45045;45.440;9.178;2022-12-18T15:25:56;13.10;99.90
32400;DHT22;45045;45.440;9.178;2022-12-18T15:31:21;13.40;99.90
32400;DHT22;45045;45.440;9.178;2022-12-18T15:36:19;13.60;99.90
32400;DHT22;45045;45.440;9.178;2022-12-18T15:38:52;13.70;99.90
32400;DHT22;45045;45.440;9.178;2022-12-18T15:41:21;13.50;99.90
32400;DHT22;45045;45.440;9.178;2022-12-18T15:43:49;13.60;99.90
32400;DHT22;45045;45.440;9.178;2022-12-18T15:46:17;13.70;99.90
32400;DHT22;45045;45.440;9.178;2022-12-18T15:48:44;13.10;99.90
32400;DHT22;45045;45.440;9.178;2022-12-18T15:53:39;13.40;99.90
32400;DHT22;45045;45.440;9.178;2022-12-18T15:56:07;13.70;99.90
32400;DHT22;45045;45.440;9.178;2022-12-18T15:58:53;13.90;99.90
32400;DHT22;45045;45.440;9.178;2022-12-18T16:01:20;14.00;99.90
32400;DHT22;45045;45.440;9.178;2022-12-18T16:03:46;14.20;99.90
32400;DHT22;45045;45.440;9.178;2022-12-18T16:06:11;14.30;99.90
32400;DHT22;45045;45.440;9.178;2022-12-18T16:08:37;14.30;99.90
32400;DHT22;45045;45.440;9.178;2022-12-18T16:11:05;14.30;99.90
32400;DHT22;45045;45.440;9.178;2022-12-18T16:13:31;14.40;99.90
32400;DHT22;45045;45.440;9.178;2022-12-18T16:15:56;14.40;99.90
32400;DHT22;45045;45.440;9.178;2022-12-18T16:18:22;14.30;99.90
32400;DHT22;45045;45.440;9.178;2022-12-18T16:20:47;14.20;99.90
32400;DHT22;45045;45.440;9.178;2022-12-18T16:23:13;14.10;99.90
32400;DHT22;45045;45.440;9.178;2022-12-18T16:25:39;13.90;99.90
32400;DHT22;45045;45.440;9.178;2022-12-18T16:28:04;13.70;99.90
32400;DHT22;45045;45.440;9.178;2022-12-18T16:30:31;14.00;99.90
32400;DHT22;45045;45.440;9.178;2022-12-18T16:32:58;14.00;99.90
32400;DHT22;45045;45.440;9.178;2022-12-18T16:35:24;14.00;99.90
32400;DHT22;45045;45.440;9.178;2022-12-18T16:37:50;14.10;99.90
32400;DHT22;45045;45.440;9.178;2022-12-18T16:40:16;14.10;99.90
32400;DHT22;45045;45.440;9.178;2022-12-18T16:42:44;14.10;99.90
32400;DHT22;45045;45.440;9.178;2022-12-18T16:45:12;14.10;99.90
32400;DHT22;45045;45.440;9.178;2022-12-18T16:47:38;14.20;99.90
32400;DHT22;45045;45.440;9.178;2022-12-18T16:50:05;14.30;99.90
32400;DHT22;45045;45.440;9.178;2022-12-18T16:52:30;14.30;99.90
32400;DHT22;45045;45.440;9.178;2022-12-18T16:54:56;14.20;99.90
32400;DHT22;45045;45.440;9.178;2022-12-18T16:57:22;14.20;99.90
32400;DHT22;45045;45.440;9.178;2022-12-18T16:59:48;14.30;99.90
32400;DHT22;45045;45.440;9.178;2022-12-18T17:02:25;14.40;99.90
32400;DHT22;45045;45.440;9.178;2022-12-18T17:04:55;14.40;99.90
32400;DHT22;45045;45.440;9.178;2022-12-18T17:07:22;14.40;99.90
32400;DHT22;45045;45.440;9.178;2022-12-18T17:09:48;14.40;99.90
32400;DHT22;45045;45.440;9.178;2022-12-18T17:12:15;14.40;99.90
32400;DHT22;45045;45.440;9.178;2022-12-18T17:14:41;14.40;99.90
32400;DHT22;45045;45.440;9.178;2022-12-18T17:17:07;14.30;99.90
32400;DHT22;45045;45.440;9.178;2022-12-18T17:19:32;14.30;99.90
32400;DHT22;45045;45.440;9.178;2022-12-18T17:21:58;14.30;99.90
32400;DHT22;45045;45.440;9.178;2022-12-18T17:24:24;14.20;99.90
32400;DHT22;45045;45.440;9.178;2022-12-18T17:26:50;14.30;99.90
32400;DHT22;45045;45.440;9.178;2022-12-18T17:29:17;14.30;99.90
32400;DHT22;45045;45.440;9.178;2022-12-18T17:31:44;14.20;99.90
32400;DHT22;45045;45.440;9.178;2022-12-18T17:34:11;14.30;99.90
32400;DHT22;45045;45.440;9.178;2022-12-18T17:36:38;14.20;99.90
32400;DHT22;45045;45.440;9.178;2022-12-18T17:39:04;14.20;99.90
32400;DHT22;45045;45.440;9.178;2022-12-18T17:41:31;14.30;99.90
32400;DHT22;45045;45.440;9.178;2022-12-18T17:43:59;14.20;99.90
32400;DHT22;45045;45.440;9.178;2022-12-18T17:46:26;14.10;99.90
32400;DHT22;45045;45.440;9.178;2022-12-18T17:48:54;14.10;99.90
32400;DHT22;45045;45.440;9.178;2022-12-18T17:51:20;14.10;99.90
32400;DHT22;45045;45.440;9.178;2022-12-18T17:53:45;14.20;99.90
32400;DHT22;45045;45.440;9.178;2022-12-18T17:56:13;14.20;99.90
32400;DHT22;45045;45.440;9.178;2022-12-18T17:58:39;14.20;99.90
32400;DHT22;45045;45.440;9.178;2022-12-18T18:01:05;14.30;99.90
32400;DHT22;45045;45.440;9.178;2022-12-18T18:03:31;14.30;99.90
32400;DHT22;45045;45.440;9.178;2022-12-18T18:05:59;14.30;99.90
32400;DHT22;45045;45.440;9.178;2022-12-18T18:08:25;14.30;99.90